sensor_id;sensor_type;location;lat;lon;timestamp;pressure;altitude;pressure_sealevel;temperature;humidity
51530;BME280;37613;51.788;21.582;2023-04-28T00:17:01;100598.55;;;1.24;64.20
51530;BME280;37613;51.788;21.582;2023-04-28T00:26:57;100600.33;;;1.15;64.33
51530;BME280;37613;51.788;21.582;2023-04-28T01:35:16;100616.98;;;0.25;66.27
51530;BME280;37613;51.788;21.582;2023-04-28T01:40:12;100622.27;;;0.22;66.37
51530;BME280;37613;51.788;21.582;2023-04-28T01:44:55;100618.14;;;0.17;66.32
51530;BME280;37613;51.788;21.582;2023-04-28T01:49:42;100623.88;;;0.14;66.54
51530;BME280;37613;51.788;21.582;2023-04-28T02:18:17;100630.81;;;-0.08;67.05
51530;BME280;37613;51.788;21.582;2023-04-28T02:23:06;100626.98;;;-0.12;67.08
51530;BME280;37613;51.788;21.582;2023-04-28T02:53:28;100628.68;;;-0.30;67.79
51530;BME280;37613;51.788;21.582;2023-04-28T03:08:17;100633.10;;;-0.26;68.23
51530;BME280;37613;51.788;21.582;2023-04-28T03:23:09;100639.87;;;-0.23;68.62
51530;BME280;37613;51.788;21.582;2023-04-28T03:33:34;100644.83;;;-0.20;68.75
51530;BME280;37613;51.788;21.582;2023-04-28T04:13:03;100659.81;;;5.70;72.74
51530;BME280;37613;51.788;21.582;2023-04-28T04:32:32;100675.45;;;12.54;69.30
51530;BME280;37613;51.788;21.582;2023-04-28T04:42:11;100677.91;;;13.39;65.53
51530;BME280;37613;51.788;21.582;2023-04-28T04:47:02;100677.27;;;13.98;65.67
51530;BME280;37613;51.788;21.582;2023-04-28T04:51:14;100674.80;;;15.28;65.05
51530;BME280;37613;51.788;21.582;2023-04-28T04:55:43;100681.11;;;16.57;64.15
51530;BME280;37613;51.788;21.582;2023-04-28T04:59:59;100675.27;;;17.52;62.67
51530;BME280;37613;51.788;21.582;2023-04-28T05:04:13;100670.48;;;18.52;61.57
51530;BME280;37613;51.788;21.582;2023-04-28T05:08:26;100670.64;;;19.33;59.53
51530;BME280;37613;51.788;21.582;2023-04-28T05:12:37;100667.25;;;19.78;57.56
51530;BME280;37613;51.788;21.582;2023-04-28T05:16:45;100671.73;;;20.39;55.54
51530;BME280;37613;51.788;21.582;2023-04-28T05:20:52;100678.07;;;21.14;54.83
51530;BME280;37613;51.788;21.582;2023-04-28T05:25:03;100682.48;;;21.57;52.33
51530;BME280;37613;51.788;21.582;2023-04-28T05:29:10;100681.89;;;21.70;50.83
51530;BME280;37613;51.788;21.582;2023-04-28T05:33:15;100685.89;;;21.73;49.26
51530;BME280;37613;51.788;21.582;2023-04-28T05:37:20;100683.54;;;21.39;47.94
51530;BME280;37613;51.788;21.582;2023-04-28T05:41:27;100682.48;;;20.09;46.11
51530;BME280;37613;51.788;21.582;2023-04-28T05:45:34;100681.31;;;18.10;45.94
51530;BME280;37613;51.788;21.582;2023-04-28T05:49:39;100681.06;;;16.28;44.70
51530;BME280;37613;51.788;21.582;2023-04-28T05:53:44;100681.02;;;14.74;44.64
51530;BME280;37613;51.788;21.582;2023-04-28T05:57:55;100679.98;;;13.72;45.31
51530;BME280;37613;51.788;21.582;2023-04-28T06:02:06;100682.96;;;12.87;45.78
51530;BME280;37613;51.788;21.582;2023-04-28T06:06:22;100688.73;;;12.42;46.52
51530;BME280;37613;51.788;21.582;2023-04-28T06:10:46;100688.09;;;12.28;46.88
51530;BME280;37613;51.788;21.582;2023-04-28T06:15:04;100690.40;;;12.34;47.37
51530;BME280;37613;51.788;21.582;2023-04-28T06:19:21;100689.52;;;12.46;47.57
51530;BME280;37613;51.788;21.582;2023-04-28T06:23:28;100695.08;;;12.56;47.68
51530;BME280;37613;51.788;21.582;2023-04-28T06:27:36;100695.29;;;12.80;47.92
51530;BME280;37613;51.788;21.582;2023-04-28T06:31:45;100693.89;;;13.05;48.13
51530;BME280;37613;51.788;21.582;2023-04-28T06:36:01;100693.23;;;13.15;47.48
51530;BME280;37613;51.788;21.582;2023-04-28T06:40:11;100699.04;;;13.11;47.63
51530;BME280;37613;51.788;21.582;2023-04-28T06:44:19;100703.07;;;13.19;47.95
51530;BME280;37613;51.788;21.582;2023-04-28T06:48:21;100703.58;;;13.40;47.83
51530;BME280;37613;51.788;21.582;2023-04-28T06:52:23;100703.97;;;13.60;47.89
51530;BME280;37613;51.788;21.582;2023-04-28T06:56:26;100702.96;;;13.85;47.64
51530;BME280;37613;51.788;21.582;2023-04-28T07:00:28;100701.77;;;14.12;48.11
51530;BME280;37613;51.788;21.582;2023-04-28T07:04:30;100700.14;;;14.28;47.50
51530;BME280;37613;51.788;21.582;2023-04-28T07:08:32;100697.86;;;14.24;45.96
51530;BME280;37613;51.788;21.582;2023-04-28T07:12:34;100697.83;;;14.18;45.85
51530;BME280;37613;51.788;21.582;2023-04-28T07:16:43;100698.70;;;14.28;45.41
51530;BME280;37613;51.788;21.582;2023-04-28T07:20:45;100700.54;;;14.37;45.25
51530;BME280;37613;51.788;21.582;2023-04-28T07:24:47;100696.56;;;14.26;45.05
51530;BME280;37613;51.788;21.582;2023-04-28T07:28:49;100694.59;;;13.91;45.19
51530;BME280;37613;51.788;21.582;2023-04-28T07:33:00;100689.77;;;13.73;44.60
51530;BME280;37613;51.788;21.582;2023-04-28T07:37:11;100687.44;;;13.63;44.12
51530;BME280;37613;51.788;21.582;2023-04-28T07:41:26;100684.88;;;13.48;44.13
51530;BME280;37613;51.788;21.582;2023-04-28T07:45:39;100680.91;;;13.47;44.13
51530;BME280;37613;51.788;21.582;2023-04-28T07:49:52;100680.17;;;13.54;43.60
51530;BME280;37613;51.788;21.582;2023-04-28T07:54:05;100675.14;;;13.60;43.88
51530;BME280;37613;51.788;21.582;2023-04-28T07:58:13;100671.04;;;13.69;43.27
51530;BME280;37613;51.788;21.582;2023-04-28T08:02:23;100668.02;;;13.84;43.87
51530;BME280;37613;51.788;21.582;2023-04-28T08:06:30;100666.20;;;14.16;43.40
51530;BME280;37613;51.788;21.582;2023-04-28T08:10:37;100659.90;;;14.30;42.94
51530;BME280;37613;51.788;21.582;2023-04-28T08:14:45;100659.49;;;14.30;42.02
51530;BME280;37613;51.788;21.582;2023-04-28T08:18:55;100656.79;;;14.30;41.56
51530;BME280;37613;51.788;21.582;2023-04-28T08:23:01;100651.45;;;14.29;41.21
51530;BME280;37613;51.788;21.582;2023-04-28T08:27:09;100653.73;;;14.35;41.74
51530;BME280;37613;51.788;21.582;2023-04-28T08:31:17;100655.05;;;14.19;41.78
51530;BME280;37613;51.788;21.582;2023-04-28T08:35:25;100657.49;;;14.31;41.63
51530;BME280;37613;51.788;21.582;2023-04-28T08:39:30;100649.48;;;14.39;41.12
51530;BME280;37613;51.788;21.582;2023-04-28T08:43:35;100645.95;;;14.23;40.45
51530;BME280;37613;51.788;21.582;2023-04-28T08:47:38;100647.65;;;13.99;40.57
51530;BME280;37613;51.788;21.582;2023-04-28T08:51:55;100646.93;;;13.75;40.82
51530;BME280;37613;51.788;21.582;2023-04-28T08:56:00;100644.30;;;13.64;40.12
51530;BME280;37613;51.788;21.582;2023-04-28T09:00:06;100643.39;;;13.55;40.24
51530;BME280;37613;51.788;21.582;2023-04-28T09:04:25;100637.02;;;13.42;40.40
51530;BME280;37613;51.788;21.582;2023-04-28T09:08:42;100633.77;;;13.41;40.81
51530;BME280;37613;51.788;21.582;2023-04-28T09:17:11;100628.34;;;14.18;38.62
51530;BME280;37613;51.788;21.582;2023-04-28T09:21:20;100628.27;;;14.47;38.88
51530;BME280;37613;51.788;21.582;2023-04-28T09:25:37;100631.05;;;14.37;37.87
51530;BME280;37613;51.788;21.582;2023-04-28T09:29:52;100629.02;;;13.93;36.59
51530;BME280;37613;51.788;21.582;2023-04-28T09:34:03;100625.37;;;13.67;37.78
51530;BME280;37613;51.788;21.582;2023-04-28T09:38:17;100622.27;;;13.59;38.31
51530;BME280;37613;51.788;21.582;2023-04-28T09:46:52;100612.45;;;14.08;38.60
51530;BME280;37613;51.788;21.582;2023-04-28T09:51:05;100609.41;;;14.29;38.20
51530;BME280;37613;51.788;21.582;2023-04-28T09:55:16;100607.20;;;14.56;38.64
51530;BME280;37613;51.788;21.582;2023-04-28T09:59:29;100598.22;;;14.92;38.45
51530;BME280;37613;51.788;21.582;2023-04-28T10:03:37;100599.14;;;14.95;38.04
51530;BME280;37613;51.788;21.582;2023-04-28T10:07:43;100589.33;;;14.84;37.73
51530;BME280;37613;51.788;21.582;2023-04-28T10:11:48;100590.33;;;14.71;38.24
51530;BME280;37613;51.788;21.582;2023-04-28T10:15:54;100584.45;;;14.63;38.04
51530;BME280;37613;51.788;21.582;2023-04-28T10:19:59;100578.25;;;14.20;36.98
51530;BME280;37613;51.788;21.582;2023-04-28T10:24:17;100569.25;;;13.84;36.73
51530;BME280;37613;51.788;21.582;2023-04-28T10:28:26;100571.31;;;13.50;37.60
51530;BME280;37613;51.788;21.582;2023-04-28T10:32:31;100565.63;;;13.46;37.68
51530;BME280;37613;51.788;21.582;2023-04-28T10:36:56;100558.71;;;13.45;37.21
51530;BME280;37613;51.788;21.582;2023-04-28T10:41:03;100552.30;;;13.65;37.38
51530;BME280;37613;51.788;21.582;2023-04-28T10:54:09;100547.85;;;14.78;37.79
51530;BME280;37613;51.788;21.582;2023-04-28T11:02:35;100540.15;;;15.42;36.96
51530;BME280;37613;51.788;21.582;2023-04-28T11:06:43;100538.11;;;15.63;36.38
51530;BME280;37613;51.788;21.582;2023-04-28T11:11:18;100534.30;;;15.73;35.48
51530;BME280;37613;51.788;21.582;2023-04-28T11:15:26;100535.33;;;15.74;35.51
51530;BME280;37613;51.788;21.582;2023-04-28T11:19:51;100533.35;;;15.67;35.62
51530;BME280;37613;51.788;21.582;2023-04-28T11:24:07;100534.14;;;15.63;35.52
51530;BME280;37613;51.788;21.582;2023-04-28T11:28:12;100530.67;;;15.42;35.02
51530;BME280;37613;51.788;21.582;2023-04-28T11:32:31;100530.22;;;15.13;35.12
51530;BME280;37613;51.788;21.582;2023-04-28T11:36:38;100523.55;;;15.00;34.73
51530;BME280;37613;51.788;21.582;2023-04-28T11:41:01;100523.69;;;14.90;34.72
51530;BME280;37613;51.788;21.582;2023-04-28T11:45:04;100521.85;;;14.84;35.37
51530;BME280;37613;51.788;21.582;2023-04-28T11:49:11;100516.78;;;14.94;34.92
51530;BME280;37613;51.788;21.582;2023-04-28T11:53:18;100502.83;;;14.96;35.31
51530;BME280;37613;51.788;21.582;2023-04-28T11:57:26;100509.85;;;15.17;35.01
51530;BME280;37613;51.788;21.582;2023-04-28T12:01:34;100508.63;;;15.08;34.73
51530;BME280;37613;51.788;21.582;2023-04-28T12:11:17;100495.40;;;14.79;33.87
51530;BME280;37613;51.788;21.582;2023-04-28T12:15:39;100490.35;;;14.41;33.74
51530;BME280;37613;51.788;21.582;2023-04-28T12:19:47;100487.69;;;14.45;34.74
51530;BME280;37613;51.788;21.582;2023-04-28T12:23:57;100477.60;;;14.66;35.05
51530;BME280;37613;51.788;21.582;2023-04-28T12:28:06;100474.36;;;14.64;34.27
51530;BME280;37613;51.788;21.582;2023-04-28T12:32:14;100465.05;;;14.51;34.13
51530;BME280;37613;51.788;21.582;2023-04-28T12:36:19;100459.98;;;14.33;34.05
51530;BME280;37613;51.788;21.582;2023-04-28T12:40:22;100453.21;;;14.12;34.78
51530;BME280;37613;51.788;21.582;2023-04-28T12:44:31;100455.61;;;14.18;34.94
51530;BME280;37613;51.788;21.582;2023-04-28T12:48:40;100449.58;;;14.40;34.97
51530;BME280;37613;51.788;21.582;2023-04-28T12:52:47;100447.55;;;14.51;34.60
51530;BME280;37613;51.788;21.582;2023-04-28T12:56:50;100445.77;;;14.53;35.03
51530;BME280;37613;51.788;21.582;2023-04-28T13:01:00;100441.35;;;14.69;34.70
51530;BME280;37613;51.788;21.582;2023-04-28T13:05:16;100436.06;;;14.78;34.24
51530;BME280;37613;51.788;21.582;2023-04-28T13:09:24;100435.45;;;14.76;34.56
51530;BME280;37613;51.788;21.582;2023-04-28T13:13:32;100432.86;;;14.80;34.12
51530;BME280;37613;51.788;21.582;2023-04-28T13:17:43;100428.77;;;14.76;34.46
51530;BME280;37613;51.788;21.582;2023-04-28T18:54:16;100259.42;;;7.98;45.81
